sensor_id;sensor_type;location;lat;lon;timestamp;temperature;humidity
38118;DHT22;23928;47.562;7.508;2022-08-03T00:01:29;20.40;99.90
38118;DHT22;23928;47.562;7.508;2022-08-03T00:03:55;20.40;99.90
38118;DHT22;23928;47.562;7.508;2022-08-03T00:06:21;20.60;99.90
38118;DHT22;23928;47.562;7.508;2022-08-03T00:08:46;20.60;99.90
38118;DHT22;23928;47.562;7.508;2022-08-03T00:11:12;20.40;99.90
38118;DHT22;23928;47.562;7.508;2022-08-03T00:13:38;20.40;99.90
38118;DHT22;23928;47.562;7.508;2022-08-03T00:16:03;20.30;99.90
38118;DHT22;23928;47.562;7.508;2022-08-03T00:18:29;20.00;99.90
38118;DHT22;23928;47.562;7.508;2022-08-03T00:20:55;20.20;99.90
38118;DHT22;23928;47.562;7.508;2022-08-03T00:23:20;20.10;99.90
38118;DHT22;23928;47.562;7.508;2022-08-03T00:25:46;20.30;99.90
38118;DHT22;23928;47.562;7.508;2022-08-03T00:28:12;20.30;99.90
38118;DHT22;23928;47.562;7.508;2022-08-03T00:30:37;20.10;99.90
38118;DHT22;23928;47.562;7.508;2022-08-03T00:33:03;20.20;99.90
38118;DHT22;23928;47.562;7.508;2022-08-03T00:35:29;20.30;99.90
38118;DHT22;23928;47.562;7.508;2022-08-03T00:37:55;20.30;99.90
38118;DHT22;23928;47.562;7.508;2022-08-03T00:40:21;20.20;99.90
38118;DHT22;23928;47.562;7.508;2022-08-03T00:42:55;20.10;99.90
38118;DHT22;23928;47.562;7.508;2022-08-03T00:45:27;19.90;99.90
38118;DHT22;23928;47.562;7.508;2022-08-03T00:47:54;20.00;99.90
38118;DHT22;23928;47.562;7.508;2022-08-03T00:50:22;20.20;99.90
38118;DHT22;23928;47.562;7.508;2022-08-03T00:52:53;20.40;99.90
38118;DHT22;23928;47.562;7.508;2022-08-03T00:55:19;20.50;99.90
38118;DHT22;23928;47.562;7.508;2022-08-03T00:57:45;20.60;99.90
38118;DHT22;23928;47.562;7.508;2022-08-03T01:00:13;20.60;99.90
38118;DHT22;23928;47.562;7.508;2022-08-03T01:02:39;20.30;99.90
38118;DHT22;23928;47.562;7.508;2022-08-03T01:05:06;19.80;99.90
38118;DHT22;23928;47.562;7.508;2022-08-03T01:10:52;19.40;99.90
38118;DHT22;23928;47.562;7.508;2022-08-03T01:13:42;19.30;99.90
38118;DHT22;23928;47.562;7.508;2022-08-03T01:16:29;19.10;99.90
38118;DHT22;23928;47.562;7.508;2022-08-03T01:27:28;19.30;99.90
38118;DHT22;23928;47.562;7.508;2022-08-03T01:30:06;19.10;99.90
38118;DHT22;23928;47.562;7.508;2022-08-03T01:32:45;19.20;99.90
38118;DHT22;23928;47.562;7.508;2022-08-03T01:35:16;19.10;99.90
38118;DHT22;23928;47.562;7.508;2022-08-03T01:38:03;19.10;99.90
38118;DHT22;23928;47.562;7.508;2022-08-03T01:40:33;19.00;99.90
38118;DHT22;23928;47.562;7.508;2022-08-03T01:43:02;18.90;99.90
38118;DHT22;23928;47.562;7.508;2022-08-03T01:45:29;19.20;99.90
38118;DHT22;23928;47.562;7.508;2022-08-03T01:47:56;19.30;99.90
38118;DHT22;23928;47.562;7.508;2022-08-03T01:50:26;19.10;99.90
38118;DHT22;23928;47.562;7.508;2022-08-03T01:52:53;18.90;99.90
38118;DHT22;23928;47.562;7.508;2022-08-03T01:55:21;18.80;99.90
38118;DHT22;23928;47.562;7.508;2022-08-03T01:57:49;18.70;99.90
38118;DHT22;23928;47.562;7.508;2022-08-03T02:00:17;18.60;99.90
38118;DHT22;23928;47.562;7.508;2022-08-03T02:02:46;18.50;99.90
38118;DHT22;23928;47.562;7.508;2022-08-03T02:05:13;18.50;99.90
38118;DHT22;23928;47.562;7.508;2022-08-03T02:07:41;18.50;99.90
38118;DHT22;23928;47.562;7.508;2022-08-03T02:10:08;18.60;99.90
38118;DHT22;23928;47.562;7.508;2022-08-03T02:12:36;18.50;99.90
38118;DHT22;23928;47.562;7.508;2022-08-03T02:15:03;18.50;99.90
38118;DHT22;23928;47.562;7.508;2022-08-03T02:17:29;18.70;99.90
38118;DHT22;23928;47.562;7.508;2022-08-03T02:19:58;18.90;99.90
38118;DHT22;23928;47.562;7.508;2022-08-03T02:22:24;18.90;99.90
38118;DHT22;23928;47.562;7.508;2022-08-03T02:24:51;18.60;99.90
38118;DHT22;23928;47.562;7.508;2022-08-03T02:27:22;18.50;99.90
38118;DHT22;23928;47.562;7.508;2022-08-03T02:29:52;18.30;99.90
38118;DHT22;23928;47.562;7.508;2022-08-03T02:32:23;18.20;99.90
38118;DHT22;23928;47.562;7.508;2022-08-03T02:34:51;18.20;99.90
38118;DHT22;23928;47.562;7.508;2022-08-03T02:37:18;18.10;99.90
38118;DHT22;23928;47.562;7.508;2022-08-03T02:39:46;18.10;99.90
38118;DHT22;23928;47.562;7.508;2022-08-03T02:42:13;18.00;99.90
38118;DHT22;23928;47.562;7.508;2022-08-03T02:44:39;17.80;99.90
38118;DHT22;23928;47.562;7.508;2022-08-03T02:47:12;17.90;99.90
38118;DHT22;23928;47.562;7.508;2022-08-03T02:49:41;18.30;99.90
38118;DHT22;23928;47.562;7.508;2022-08-03T02:52:11;18.40;99.90
38118;DHT22;23928;47.562;7.508;2022-08-03T02:54:38;18.50;99.90
38118;DHT22;23928;47.562;7.508;2022-08-03T02:57:07;18.80;99.90
38118;DHT22;23928;47.562;7.508;2022-08-03T02:59:34;19.00;99.90
38118;DHT22;23928;47.562;7.508;2022-08-03T03:02:01;18.80;99.90
38118;DHT22;23928;47.562;7.508;2022-08-03T03:04:27;18.70;99.90
38118;DHT22;23928;47.562;7.508;2022-08-03T03:06:55;18.70;99.90
38118;DHT22;23928;47.562;7.508;2022-08-03T03:09:22;18.40;99.90
38118;DHT22;23928;47.562;7.508;2022-08-03T03:11:48;18.30;99.90
38118;DHT22;23928;47.562;7.508;2022-08-03T03:14:15;18.40;99.90
38118;DHT22;23928;47.562;7.508;2022-08-03T03:16:43;18.50;99.90
38118;DHT22;23928;47.562;7.508;2022-08-03T03:19:11;18.20;99.90
38118;DHT22;23928;47.562;7.508;2022-08-03T03:21:37;18.00;99.90
38118;DHT22;23928;47.562;7.508;2022-08-03T03:24:05;17.80;99.90
38118;DHT22;23928;47.562;7.508;2022-08-03T03:26:31;17.70;99.90
38118;DHT22;23928;47.562;7.508;2022-08-03T03:28:57;17.70;99.90
38118;DHT22;23928;47.562;7.508;2022-08-03T03:31:23;18.00;99.90
38118;DHT22;23928;47.562;7.508;2022-08-03T03:33:49;18.30;99.90
38118;DHT22;23928;47.562;7.508;2022-08-03T03:36:14;18.20;99.90
38118;DHT22;23928;47.562;7.508;2022-08-03T03:38:40;17.90;99.90
38118;DHT22;23928;47.562;7.508;2022-08-03T03:41:06;17.80;99.90
38118;DHT22;23928;47.562;7.508;2022-08-03T03:43:32;18.10;99.90
38118;DHT22;23928;47.562;7.508;2022-08-03T03:45:57;18.40;99.90
38118;DHT22;23928;47.562;7.508;2022-08-03T03:48:24;18.10;99.90
38118;DHT22;23928;47.562;7.508;2022-08-03T03:50:50;17.80;99.90
38118;DHT22;23928;47.562;7.508;2022-08-03T03:53:16;17.70;99.90
38118;DHT22;23928;47.562;7.508;2022-08-03T03:55:42;17.90;99.90
38118;DHT22;23928;47.562;7.508;2022-08-03T03:58:08;18.20;99.90
38118;DHT22;23928;47.562;7.508;2022-08-03T04:00:33;18.20;99.90
38118;DHT22;23928;47.562;7.508;2022-08-03T04:02:59;18.30;99.90
38118;DHT22;23928;47.562;7.508;2022-08-03T04:05:25;18.10;99.90
38118;DHT22;23928;47.562;7.508;2022-08-03T04:08:10;17.80;99.90
38118;DHT22;23928;47.562;7.508;2022-08-03T04:13:58;18.40;99.90
38118;DHT22;23928;47.562;7.508;2022-08-03T04:16:27;18.50;99.90
38118;DHT22;23928;47.562;7.508;2022-08-03T04:19:00;18.30;99.90
38118;DHT22;23928;47.562;7.508;2022-08-03T04:21:27;18.40;99.90
38118;DHT22;23928;47.562;7.508;2022-08-03T04:23:58;18.40;99.90
38118;DHT22;23928;47.562;7.508;2022-08-03T04:26:26;18.60;99.90
38118;DHT22;23928;47.562;7.508;2022-08-03T04:28:53;18.50;99.90
38118;DHT22;23928;47.562;7.508;2022-08-03T04:31:23;18.50;99.90
38118;DHT22;23928;47.562;7.508;2022-08-03T04:33:50;18.40;99.90
38118;DHT22;23928;47.562;7.508;2022-08-03T04:36:20;18.30;99.90
38118;DHT22;23928;47.562;7.508;2022-08-03T04:38:58;18.50;99.90
38118;DHT22;23928;47.562;7.508;2022-08-03T04:41:25;18.60;99.90
38118;DHT22;23928;47.562;7.508;2022-08-03T04:43:55;18.30;99.90
38118;DHT22;23928;47.562;7.508;2022-08-03T04:46:25;18.30;99.90
38118;DHT22;23928;47.562;7.508;2022-08-03T04:48:51;18.40;99.90
38118;DHT22;23928;47.562;7.508;2022-08-03T04:51:17;18.40;99.90
38118;DHT22;23928;47.562;7.508;2022-08-03T04:53:43;18.60;99.90
38118;DHT22;23928;47.562;7.508;2022-08-03T04:56:08;18.90;99.90
38118;DHT22;23928;47.562;7.508;2022-08-03T04:58:35;19.10;99.90
38118;DHT22;23928;47.562;7.508;2022-08-03T05:01:00;19.20;99.90
38118;DHT22;23928;47.562;7.508;2022-08-03T05:03:26;19.20;99.90
38118;DHT22;23928;47.562;7.508;2022-08-03T05:05:52;19.30;99.90
38118;DHT22;23928;47.562;7.508;2022-08-03T05:08:18;19.40;99.90
38118;DHT22;23928;47.562;7.508;2022-08-03T05:10:45;19.40;99.90
38118;DHT22;23928;47.562;7.508;2022-08-03T05:13:10;19.30;99.90
38118;DHT22;23928;47.562;7.508;2022-08-03T05:15:38;19.50;99.90
38118;DHT22;23928;47.562;7.508;2022-08-03T05:18:04;19.70;99.90
38118;DHT22;23928;47.562;7.508;2022-08-03T05:20:29;19.90;99.90
38118;DHT22;23928;47.562;7.508;2022-08-03T05:22:56;19.90;99.90
38118;DHT22;23928;47.562;7.508;2022-08-03T05:25:22;19.80;99.90
38118;DHT22;23928;47.562;7.508;2022-08-03T05:27:47;20.00;99.90
38118;DHT22;23928;47.562;7.508;2022-08-03T05:30:14;19.90;99.90
38118;DHT22;23928;47.562;7.508;2022-08-03T05:32:40;20.10;99.90
38118;DHT22;23928;47.562;7.508;2022-08-03T05:35:06;20.10;99.90
38118;DHT22;23928;47.562;7.508;2022-08-03T05:37:32;20.10;99.90
38118;DHT22;23928;47.562;7.508;2022-08-03T05:39:57;19.90;99.90
38118;DHT22;23928;47.562;7.508;2022-08-03T05:42:23;19.90;99.90
38118;DHT22;23928;47.562;7.508;2022-08-03T05:44:49;20.10;99.90
38118;DHT22;23928;47.562;7.508;2022-08-03T05:47:14;20.30;99.90
38118;DHT22;23928;47.562;7.508;2022-08-03T05:49:40;20.40;99.90
38118;DHT22;23928;47.562;7.508;2022-08-03T05:52:06;20.40;99.90
38118;DHT22;23928;47.562;7.508;2022-08-03T05:54:31;20.50;99.90
38118;DHT22;23928;47.562;7.508;2022-08-03T05:56:57;20.60;99.90
38118;DHT22;23928;47.562;7.508;2022-08-03T05:59:23;20.60;99.90
38118;DHT22;23928;47.562;7.508;2022-08-03T06:01:49;20.50;99.90
38118;DHT22;23928;47.562;7.508;2022-08-03T06:04:15;20.60;99.90
38118;DHT22;23928;47.562;7.508;2022-08-03T06:06:41;20.70;99.90
38118;DHT22;23928;47.562;7.508;2022-08-03T06:09:07;20.60;99.90
38118;DHT22;23928;47.562;7.508;2022-08-03T06:11:35;20.70;99.90
38118;DHT22;23928;47.562;7.508;2022-08-03T06:14:00;20.70;99.90
38118;DHT22;23928;47.562;7.508;2022-08-03T06:16:26;20.50;99.90
38118;DHT22;23928;47.562;7.508;2022-08-03T06:18:52;20.60;99.90
38118;DHT22;23928;47.562;7.508;2022-08-03T06:21:17;20.80;99.90
38118;DHT22;23928;47.562;7.508;2022-08-03T06:23:44;20.90;99.90
38118;DHT22;23928;47.562;7.508;2022-08-03T06:26:10;20.80;99.90
38118;DHT22;23928;47.562;7.508;2022-08-03T06:28:35;20.80;99.90
38118;DHT22;23928;47.562;7.508;2022-08-03T06:31:02;20.90;99.90
38118;DHT22;23928;47.562;7.508;2022-08-03T06:33:28;20.90;99.90
38118;DHT22;23928;47.562;7.508;2022-08-03T06:35:53;20.90;99.90
38118;DHT22;23928;47.562;7.508;2022-08-03T06:38:19;21.00;99.90
38118;DHT22;23928;47.562;7.508;2022-08-03T06:40:45;21.10;99.90
38118;DHT22;23928;47.562;7.508;2022-08-03T06:43:10;21.20;99.90
38118;DHT22;23928;47.562;7.508;2022-08-03T06:45:36;21.20;99.90
38118;DHT22;23928;47.562;7.508;2022-08-03T06:48:06;21.30;99.90
38118;DHT22;23928;47.562;7.508;2022-08-03T06:50:33;21.40;99.90
38118;DHT22;23928;47.562;7.508;2022-08-03T06:53:00;21.60;99.90
38118;DHT22;23928;47.562;7.508;2022-08-03T06:55:27;21.70;99.90
38118;DHT22;23928;47.562;7.508;2022-08-03T06:57:52;21.80;99.90
38118;DHT22;23928;47.562;7.508;2022-08-03T07:00:18;21.80;99.90
38118;DHT22;23928;47.562;7.508;2022-08-03T07:02:44;21.90;99.90
38118;DHT22;23928;47.562;7.508;2022-08-03T07:05:10;22.00;99.90
38118;DHT22;23928;47.562;7.508;2022-08-03T07:07:36;22.10;99.90
38118;DHT22;23928;47.562;7.508;2022-08-03T07:10:03;22.10;99.90
38118;DHT22;23928;47.562;7.508;2022-08-03T07:12:30;22.20;99.90
38118;DHT22;23928;47.562;7.508;2022-08-03T07:14:57;22.30;99.90
38118;DHT22;23928;47.562;7.508;2022-08-03T07:17:23;22.40;99.90
38118;DHT22;23928;47.562;7.508;2022-08-03T07:19:48;22.50;99.90
38118;DHT22;23928;47.562;7.508;2022-08-03T07:22:14;22.60;99.90
38118;DHT22;23928;47.562;7.508;2022-08-03T07:24:39;22.60;99.90
38118;DHT22;23928;47.562;7.508;2022-08-03T07:27:06;22.80;99.90
38118;DHT22;23928;47.562;7.508;2022-08-03T07:29:33;22.90;99.90
38118;DHT22;23928;47.562;7.508;2022-08-03T07:31:59;23.10;99.90
38118;DHT22;23928;47.562;7.508;2022-08-03T07:34:25;23.30;99.90
38118;DHT22;23928;47.562;7.508;2022-08-03T07:36:51;23.30;99.90
38118;DHT22;23928;47.562;7.508;2022-08-03T07:39:16;23.30;99.90
38118;DHT22;23928;47.562;7.508;2022-08-03T07:41:42;23.40;99.90
38118;DHT22;23928;47.562;7.508;2022-08-03T07:44:08;23.40;99.90
38118;DHT22;23928;47.562;7.508;2022-08-03T07:46:33;23.60;99.90
38118;DHT22;23928;47.562;7.508;2022-08-03T07:48:59;23.90;99.90
38118;DHT22;23928;47.562;7.508;2022-08-03T07:51:24;24.10;99.90
38118;DHT22;23928;47.562;7.508;2022-08-03T07:53:50;24.10;99.90
38118;DHT22;23928;47.562;7.508;2022-08-03T07:56:16;24.20;99.90
38118;DHT22;23928;47.562;7.508;2022-08-03T07:58:42;24.30;99.90
38118;DHT22;23928;47.562;7.508;2022-08-03T08:01:07;24.40;99.90
38118;DHT22;23928;47.562;7.508;2022-08-03T08:03:33;24.40;99.90
38118;DHT22;23928;47.562;7.508;2022-08-03T08:05:59;24.50;99.90
38118;DHT22;23928;47.562;7.508;2022-08-03T08:08:24;24.60;99.90
38118;DHT22;23928;47.562;7.508;2022-08-03T08:10:50;24.70;99.90
38118;DHT22;23928;47.562;7.508;2022-08-03T08:13:16;24.70;99.90
38118;DHT22;23928;47.562;7.508;2022-08-03T08:15:41;24.80;99.90
38118;DHT22;23928;47.562;7.508;2022-08-03T08:18:07;24.80;99.90
38118;DHT22;23928;47.562;7.508;2022-08-03T08:20:34;25.00;99.90
38118;DHT22;23928;47.562;7.508;2022-08-03T08:23:04;25.20;99.90
38118;DHT22;23928;47.562;7.508;2022-08-03T08:25:31;25.30;99.90
38118;DHT22;23928;47.562;7.508;2022-08-03T08:27:57;25.60;99.90
38118;DHT22;23928;47.562;7.508;2022-08-03T08:30:26;25.70;99.90
38118;DHT22;23928;47.562;7.508;2022-08-03T08:32:52;25.80;99.90
38118;DHT22;23928;47.562;7.508;2022-08-03T08:35:18;25.80;99.90
38118;DHT22;23928;47.562;7.508;2022-08-03T08:37:44;25.80;99.90
38118;DHT22;23928;47.562;7.508;2022-08-03T08:40:10;25.80;99.90
38118;DHT22;23928;47.562;7.508;2022-08-03T08:42:37;26.00;99.90
38118;DHT22;23928;47.562;7.508;2022-08-03T08:45:04;26.10;99.90
38118;DHT22;23928;47.562;7.508;2022-08-03T08:47:32;26.20;99.90
38118;DHT22;23928;47.562;7.508;2022-08-03T08:50:00;26.10;99.90
38118;DHT22;23928;47.562;7.508;2022-08-03T08:52:28;26.10;99.90
38118;DHT22;23928;47.562;7.508;2022-08-03T08:54:59;26.20;99.90
38118;DHT22;23928;47.562;7.508;2022-08-03T08:57:28;26.40;99.90
38118;DHT22;23928;47.562;7.508;2022-08-03T08:59:55;26.60;99.90
38118;DHT22;23928;47.562;7.508;2022-08-03T09:02:23;26.80;99.90
38118;DHT22;23928;47.562;7.508;2022-08-03T09:04:49;26.60;99.90
38118;DHT22;23928;47.562;7.508;2022-08-03T09:07:17;26.70;99.90
38118;DHT22;23928;47.562;7.508;2022-08-03T09:09:42;26.90;99.90
38118;DHT22;23928;47.562;7.508;2022-08-03T09:12:08;27.00;99.90
38118;DHT22;23928;47.562;7.508;2022-08-03T09:14:34;27.10;99.90
38118;DHT22;23928;47.562;7.508;2022-08-03T09:17:00;27.40;99.90
38118;DHT22;23928;47.562;7.508;2022-08-03T09:19:30;27.60;99.90
38118;DHT22;23928;47.562;7.508;2022-08-03T09:22:22;27.50;99.90
38118;DHT22;23928;47.562;7.508;2022-08-03T09:24:55;27.50;99.90
38118;DHT22;23928;47.562;7.508;2022-08-03T09:27:21;27.80;99.90
38118;DHT22;23928;47.562;7.508;2022-08-03T09:29:48;27.80;99.90
38118;DHT22;23928;47.562;7.508;2022-08-03T09:32:14;27.60;99.90
38118;DHT22;23928;47.562;7.508;2022-08-03T09:34:43;27.60;99.90
38118;DHT22;23928;47.562;7.508;2022-08-03T09:37:16;27.90;99.90
38118;DHT22;23928;47.562;7.508;2022-08-03T09:39:43;28.20;99.90
38118;DHT22;23928;47.562;7.508;2022-08-03T09:42:17;28.20;99.90
38118;DHT22;23928;47.562;7.508;2022-08-03T09:44:48;28.30;99.90
38118;DHT22;23928;47.562;7.508;2022-08-03T09:47:16;28.40;99.90
38118;DHT22;23928;47.562;7.508;2022-08-03T09:50:06;28.70;99.90
38118;DHT22;23928;47.562;7.508;2022-08-03T09:52:36;28.90;99.90
38118;DHT22;23928;47.562;7.508;2022-08-03T09:55:13;29.10;99.90
38118;DHT22;23928;47.562;7.508;2022-08-03T09:57:39;28.90;99.90
38118;DHT22;23928;47.562;7.508;2022-08-03T10:00:13;28.90;99.90
38118;DHT22;23928;47.562;7.508;2022-08-03T10:02:40;29.10;99.90
38118;DHT22;23928;47.562;7.508;2022-08-03T10:05:07;29.10;99.90
38118;DHT22;23928;47.562;7.508;2022-08-03T10:07:48;29.40;99.90
38118;DHT22;23928;47.562;7.508;2022-08-03T10:10:15;29.50;99.90
38118;DHT22;23928;47.562;7.508;2022-08-03T10:12:42;29.70;99.90
38118;DHT22;23928;47.562;7.508;2022-08-03T10:15:08;29.80;99.90
38118;DHT22;23928;47.562;7.508;2022-08-03T10:17:38;29.70;99.90
38118;DHT22;23928;47.562;7.508;2022-08-03T10:20:04;29.80;99.90
38118;DHT22;23928;47.562;7.508;2022-08-03T10:22:35;30.00;99.90
38118;DHT22;23928;47.562;7.508;2022-08-03T10:25:05;29.90;99.90
38118;DHT22;23928;47.562;7.508;2022-08-03T10:27:36;30.10;99.90
38118;DHT22;23928;47.562;7.508;2022-08-03T10:30:05;30.40;99.90
38118;DHT22;23928;47.562;7.508;2022-08-03T10:32:55;30.20;99.90
38118;DHT22;23928;47.562;7.508;2022-08-03T10:35:24;30.10;99.90
38118;DHT22;23928;47.562;7.508;2022-08-03T10:38:07;30.10;99.90
38118;DHT22;23928;47.562;7.508;2022-08-03T10:40:34;29.90;99.90
38118;DHT22;23928;47.562;7.508;2022-08-03T10:43:06;30.10;99.90
38118;DHT22;23928;47.562;7.508;2022-08-03T10:45:36;30.50;99.90
38118;DHT22;23928;47.562;7.508;2022-08-03T10:48:04;30.40;99.90
38118;DHT22;23928;47.562;7.508;2022-08-03T10:50:29;30.50;99.90
38118;DHT22;23928;47.562;7.508;2022-08-03T10:53:06;30.70;99.90
38118;DHT22;23928;47.562;7.508;2022-08-03T10:55:36;30.80;99.90
38118;DHT22;23928;47.562;7.508;2022-08-03T11:01:09;31.10;99.90
38118;DHT22;23928;47.562;7.508;2022-08-03T11:06:33;31.40;99.90
38118;DHT22;23928;47.562;7.508;2022-08-03T11:09:14;31.40;99.90
38118;DHT22;23928;47.562;7.508;2022-08-03T11:11:42;31.20;99.90
38118;DHT22;23928;47.562;7.508;2022-08-03T11:14:20;31.00;99.90
38118;DHT22;23928;47.562;7.508;2022-08-03T11:17:05;31.10;99.90
38118;DHT22;23928;47.562;7.508;2022-08-03T11:19:50;30.80;99.90
38118;DHT22;23928;47.562;7.508;2022-08-03T11:22:17;31.00;99.90
38118;DHT22;23928;47.562;7.508;2022-08-03T11:37:32;31.20;99.90
38118;DHT22;23928;47.562;7.508;2022-08-03T11:39:58;31.60;99.90
38118;DHT22;23928;47.562;7.508;2022-08-03T11:44:52;31.70;99.90
38118;DHT22;23928;47.562;7.508;2022-08-03T11:47:22;31.60;99.90
38118;DHT22;23928;47.562;7.508;2022-08-03T11:49:49;31.70;99.90
38118;DHT22;23928;47.562;7.508;2022-08-03T11:52:16;31.60;99.90
38118;DHT22;23928;47.562;7.508;2022-08-03T11:54:42;31.40;99.90
38118;DHT22;23928;47.562;7.508;2022-08-03T11:57:08;31.60;99.90
38118;DHT22;23928;47.562;7.508;2022-08-03T11:59:35;31.80;98.30
38118;DHT22;23928;47.562;7.508;2022-08-03T12:02:12;31.80;96.70
38118;DHT22;23928;47.562;7.508;2022-08-03T12:04:51;32.10;99.60
38118;DHT22;23928;47.562;7.508;2022-08-03T12:07:17;31.80;99.90
38118;DHT22;23928;47.562;7.508;2022-08-03T12:10:03;32.10;99.90
38118;DHT22;23928;47.562;7.508;2022-08-03T12:12:29;32.30;97.60
38118;DHT22;23928;47.562;7.508;2022-08-03T12:14:54;32.10;97.50
38118;DHT22;23928;47.562;7.508;2022-08-03T12:17:20;32.10;95.20
38118;DHT22;23928;47.562;7.508;2022-08-03T12:19:46;32.30;97.80
38118;DHT22;23928;47.562;7.508;2022-08-03T12:22:11;32.50;98.30
38118;DHT22;23928;47.562;7.508;2022-08-03T12:24:42;32.40;98.90
38118;DHT22;23928;47.562;7.508;2022-08-03T12:27:08;32.40;98.60
38118;DHT22;23928;47.562;7.508;2022-08-03T12:29:34;32.40;97.90
38118;DHT22;23928;47.562;7.508;2022-08-03T12:32:00;32.40;98.70
38118;DHT22;23928;47.562;7.508;2022-08-03T12:34:45;32.30;97.30
38118;DHT22;23928;47.562;7.508;2022-08-03T12:37:11;32.50;98.50
38118;DHT22;23928;47.562;7.508;2022-08-03T12:39:36;32.80;99.90
38118;DHT22;23928;47.562;7.508;2022-08-03T12:42:02;33.00;96.30
38118;DHT22;23928;47.562;7.508;2022-08-03T12:44:32;33.00;97.90
38118;DHT22;23928;47.562;7.508;2022-08-03T12:46:59;33.10;97.10
38118;DHT22;23928;47.562;7.508;2022-08-03T12:49:26;33.00;97.50
38118;DHT22;23928;47.562;7.508;2022-08-03T12:54:21;32.80;98.00
38118;DHT22;23928;47.562;7.508;2022-08-03T12:57:07;32.40;97.20
38118;DHT22;23928;47.562;7.508;2022-08-03T12:59:42;32.40;97.00
38118;DHT22;23928;47.562;7.508;2022-08-03T13:02:28;32.90;97.10
38118;DHT22;23928;47.562;7.508;2022-08-03T13:04:54;33.20;97.70
38118;DHT22;23928;47.562;7.508;2022-08-03T13:07:21;33.70;98.80
38118;DHT22;23928;47.562;7.508;2022-08-03T13:09:50;33.30;96.60
38118;DHT22;23928;47.562;7.508;2022-08-03T13:12:19;33.50;98.30
38118;DHT22;23928;47.562;7.508;2022-08-03T13:14:47;33.10;95.80
38118;DHT22;23928;47.562;7.508;2022-08-03T13:17:14;33.30;95.20
38118;DHT22;23928;47.562;7.508;2022-08-03T13:19:41;33.50;96.60
38118;DHT22;23928;47.562;7.508;2022-08-03T13:24:44;34.30;96.20
38118;DHT22;23928;47.562;7.508;2022-08-03T13:27:11;34.20;98.20
38118;DHT22;23928;47.562;7.508;2022-08-03T13:29:37;34.60;97.80
38118;DHT22;23928;47.562;7.508;2022-08-03T13:32:03;34.50;97.80
38118;DHT22;23928;47.562;7.508;2022-08-03T13:34:29;34.50;97.20
38118;DHT22;23928;47.562;7.508;2022-08-03T13:36:54;34.90;99.20
38118;DHT22;23928;47.562;7.508;2022-08-03T13:39:20;35.10;97.90
38118;DHT22;23928;47.562;7.508;2022-08-03T13:41:46;35.50;95.30
38118;DHT22;23928;47.562;7.508;2022-08-03T13:44:12;34.70;95.30
38118;DHT22;23928;47.562;7.508;2022-08-03T13:46:38;34.10;95.90
38118;DHT22;23928;47.562;7.508;2022-08-03T13:49:04;33.80;95.20
38118;DHT22;23928;47.562;7.508;2022-08-03T13:51:30;33.50;95.80
38118;DHT22;23928;47.562;7.508;2022-08-03T13:53:56;34.30;94.80
38118;DHT22;23928;47.562;7.508;2022-08-03T13:56:24;34.50;98.70
38118;DHT22;23928;47.562;7.508;2022-08-03T13:58:50;34.30;97.10
38118;DHT22;23928;47.562;7.508;2022-08-03T14:01:15;33.60;94.70
38118;DHT22;23928;47.562;7.508;2022-08-03T14:03:41;33.70;94.80
38118;DHT22;23928;47.562;7.508;2022-08-03T14:06:07;33.60;94.10
38118;DHT22;23928;47.562;7.508;2022-08-03T14:08:33;33.80;94.40
38118;DHT22;23928;47.562;7.508;2022-08-03T14:11:00;33.90;94.30
38118;DHT22;23928;47.562;7.508;2022-08-03T14:13:25;34.00;96.10
38118;DHT22;23928;47.562;7.508;2022-08-03T14:15:51;33.40;94.70
38118;DHT22;23928;47.562;7.508;2022-08-03T14:18:18;34.00;95.10
38118;DHT22;23928;47.562;7.508;2022-08-03T14:20:44;33.60;94.10
38118;DHT22;23928;47.562;7.508;2022-08-03T14:23:10;33.70;94.80
38118;DHT22;23928;47.562;7.508;2022-08-03T14:25:35;34.60;95.30
38118;DHT22;23928;47.562;7.508;2022-08-03T14:28:01;35.10;94.30
38118;DHT22;23928;47.562;7.508;2022-08-03T14:30:26;34.40;92.80
38118;DHT22;23928;47.562;7.508;2022-08-03T14:32:52;34.10;93.30
38118;DHT22;23928;47.562;7.508;2022-08-03T14:35:18;34.70;95.80
38118;DHT22;23928;47.562;7.508;2022-08-03T14:37:43;35.70;94.50
38118;DHT22;23928;47.562;7.508;2022-08-03T14:40:10;34.90;94.10
38118;DHT22;23928;47.562;7.508;2022-08-03T14:42:36;33.90;94.00
38118;DHT22;23928;47.562;7.508;2022-08-03T14:45:01;33.60;93.40
38118;DHT22;23928;47.562;7.508;2022-08-03T14:47:27;34.20;94.00
38118;DHT22;23928;47.562;7.508;2022-08-03T14:49:52;34.20;93.90
38118;DHT22;23928;47.562;7.508;2022-08-03T14:52:18;34.60;92.30
38118;DHT22;23928;47.562;7.508;2022-08-03T14:54:44;34.50;95.90
38118;DHT22;23928;47.562;7.508;2022-08-03T14:57:10;35.70;95.20
38118;DHT22;23928;47.562;7.508;2022-08-03T14:59:35;37.00;91.90
38118;DHT22;23928;47.562;7.508;2022-08-03T15:02:01;36.50;93.80
38118;DHT22;23928;47.562;7.508;2022-08-03T15:04:26;36.70;95.10
38118;DHT22;23928;47.562;7.508;2022-08-03T15:06:52;36.90;94.00
38118;DHT22;23928;47.562;7.508;2022-08-03T15:09:18;36.20;92.70
38118;DHT22;23928;47.562;7.508;2022-08-03T15:11:43;35.10;92.70
38118;DHT22;23928;47.562;7.508;2022-08-03T15:14:09;35.20;94.20
38118;DHT22;23928;47.562;7.508;2022-08-03T15:16:35;35.70;96.50
38118;DHT22;23928;47.562;7.508;2022-08-03T15:19:00;36.60;93.70
38118;DHT22;23928;47.562;7.508;2022-08-03T15:21:26;36.60;91.00
38118;DHT22;23928;47.562;7.508;2022-08-03T15:23:52;36.60;94.10
38118;DHT22;23928;47.562;7.508;2022-08-03T15:26:18;35.20;91.40
38118;DHT22;23928;47.562;7.508;2022-08-03T15:28:44;35.40;92.10
38118;DHT22;23928;47.562;7.508;2022-08-03T15:31:09;35.20;91.60
38118;DHT22;23928;47.562;7.508;2022-08-03T15:33:36;35.70;95.70
38118;DHT22;23928;47.562;7.508;2022-08-03T15:36:02;36.10;95.00
38118;DHT22;23928;47.562;7.508;2022-08-03T15:38:28;35.20;92.30
38118;DHT22;23928;47.562;7.508;2022-08-03T15:40:54;34.80;93.30
38118;DHT22;23928;47.562;7.508;2022-08-03T15:43:20;35.50;92.40
38118;DHT22;23928;47.562;7.508;2022-08-03T15:45:46;35.20;91.80
38118;DHT22;23928;47.562;7.508;2022-08-03T15:48:11;34.90;92.80
38118;DHT22;23928;47.562;7.508;2022-08-03T15:50:37;36.50;91.80
38118;DHT22;23928;47.562;7.508;2022-08-03T15:53:03;36.10;91.70
38118;DHT22;23928;47.562;7.508;2022-08-03T15:55:29;36.00;91.50
38118;DHT22;23928;47.562;7.508;2022-08-03T15:57:55;36.10;94.30
38118;DHT22;23928;47.562;7.508;2022-08-03T16:00:21;36.60;91.20
38118;DHT22;23928;47.562;7.508;2022-08-03T16:02:47;36.70;92.20
38118;DHT22;23928;47.562;7.508;2022-08-03T16:05:12;36.60;91.20
38118;DHT22;23928;47.562;7.508;2022-08-03T16:07:38;37.20;90.90
38118;DHT22;23928;47.562;7.508;2022-08-03T16:10:08;35.90;90.00
38118;DHT22;23928;47.562;7.508;2022-08-03T16:12:33;35.10;90.20
38118;DHT22;23928;47.562;7.508;2022-08-03T16:14:59;35.00;92.70